createdAt,value
2023-03-22T00:00:06.747Z,100473.63
2023-03-22T00:02:33.735Z,100463.06
2023-03-22T00:05:00.714Z,100469.69
2023-03-22T00:07:28.109Z,100468.66
2023-03-22T00:09:55.215Z,100464.91
2023-03-22T00:12:22.272Z,100459.09
2023-03-22T00:14:49.607Z,100465.19
2023-03-22T00:17:16.583Z,100464.00
2023-03-22T00:19:45.069Z,100459.28
2023-03-22T00:22:12.008Z,100459.72
2023-03-22T00:24:39.208Z,100459.28
2023-03-22T00:27:06.391Z,100460.94
2023-03-22T00:29:33.346Z,100465.31
2023-03-22T00:32:00.438Z,100458.59
2023-03-22T00:34:31.718Z,100451.66
2023-03-22T00:36:58.996Z,100448.91
2023-03-22T00:39:27.127Z,100450.03
2023-03-22T00:41:54.126Z,100446.19
2023-03-22T00:44:21.465Z,100440.97
2023-03-22T00:46:48.405Z,100439.66
2023-03-22T00:49:15.462Z,100426.13
2023-03-22T00:51:42.514Z,100437.84
2023-03-22T00:54:09.442Z,100440.06
2023-03-22T00:56:37.735Z,100434.56
2023-03-22T00:59:13.703Z,100433.97
2023-03-22T01:01:41.867Z,100429.16
2023-03-22T01:04:09.231Z,100424.44
2023-03-22T01:06:36.275Z,100426.56
2023-03-22T01:09:03.812Z,100412.69
2023-03-22T01:11:30.913Z,100410.88
2023-03-22T01:13:57.919Z,100408.53
2023-03-22T01:16:24.827Z,100401.00
2023-03-22T01:18:52.028Z,100400.81
2023-03-22T01:21:19.931Z,100402.56
2023-03-22T01:23:47.744Z,100402.31
2023-03-22T01:26:18.135Z,100406.22
2023-03-22T01:28:45.078Z,100410.38
2023-03-22T01:31:12.294Z,100414.84
2023-03-22T01:33:39.136Z,100413.31
2023-03-22T01:36:06.977Z,100419.91
2023-03-22T01:38:35.742Z,100421.06
2023-03-22T01:41:02.970Z,100426.13
2023-03-22T01:43:33.542Z,100425.72
2023-03-22T01:46:00.678Z,100430.09
2023-03-22T01:48:38.724Z,100424.19
2023-03-22T01:51:11.500Z,100426.75
2023-03-22T01:53:58.296Z,100415.47
2023-03-22T01:56:28.536Z,100423.28
2023-03-22T01:58:56.609Z,100417.59
2023-03-22T02:01:33.118Z,100427.38
2023-03-22T02:04:13.208Z,100426.75
2023-03-22T02:06:40.333Z,100429.88
2023-03-22T02:09:22.142Z,100424.72
2023-03-22T02:12:04.778Z,100434.47
2023-03-22T02:14:44.943Z,100424.50
2023-03-22T02:17:46.384Z,100435.81
2023-03-22T02:20:19.478Z,100436.63
2023-03-22T02:22:59.127Z,100444.03
2023-03-22T02:25:40.613Z,100445.25
2023-03-22T02:28:43.038Z,100443.63
2023-03-22T02:31:38.076Z,100443.72
2023-03-22T02:34:27.802Z,100444.53
2023-03-22T02:37:32.910Z,100447.09
2023-03-22T02:40:21.107Z,100449.25
2023-03-22T02:42:57.099Z,100444.16
2023-03-22T02:45:33.932Z,100434.97
2023-03-22T02:48:10.485Z,100433.88
2023-03-22T02:50:57.273Z,100440.97
2023-03-22T02:53:43.558Z,100439.66
2023-03-22T02:56:19.789Z,100446.41
2023-03-22T02:59:01.130Z,100452.81
2023-03-22T03:01:32.134Z,100459.59
2023-03-22T03:04:02.796Z,100458.88
2023-03-22T03:06:35.972Z,100462.66
2023-03-22T03:09:05.477Z,100464.38
2023-03-22T03:11:32.847Z,100462.47
2023-03-22T03:14:00.959Z,100460.00
2023-03-22T03:16:30.900Z,100458.47
2023-03-22T03:19:12.916Z,100457.06
2023-03-22T03:21:51.974Z,100464.97
2023-03-22T03:24:38.310Z,100466.09
2023-03-22T03:27:17.799Z,100464.97
2023-03-22T03:30:10.228Z,100460.19
2023-03-22T03:32:53.855Z,100468.00
2023-03-22T03:35:25.615Z,100452.84
2023-03-22T03:38:07.990Z,100463.03
2023-03-22T03:40:41.090Z,100454.00
2023-03-22T03:43:10.045Z,100466.28
2023-03-22T03:45:38.024Z,100462.94
2023-03-22T03:48:21.973Z,100455.94
2023-03-22T03:50:52.496Z,100465.47
2023-03-22T03:53:20.223Z,100463.34
2023-03-22T03:55:47.374Z,100466.41
2023-03-22T03:58:16.912Z,100470.75
2023-03-22T04:00:46.512Z,100470.47
2023-03-22T04:03:16.962Z,100473.81
2023-03-22T04:06:02.531Z,100475.34
2023-03-22T04:08:31.725Z,100473.91
2023-03-22T04:10:58.940Z,100480.03
2023-03-22T04:13:25.939Z,100483.50
2023-03-22T04:15:58.315Z,100489.91
2023-03-22T04:18:25.524Z,100490.03
2023-03-22T04:20:53.718Z,100491.84
2023-03-22T04:23:22.732Z,100489.63
2023-03-22T04:25:50.817Z,100481.47
2023-03-22T04:28:28.539Z,100490.41
2023-03-22T04:30:57.892Z,100484.53
2023-03-22T04:33:56.683Z,100491.97
2023-03-22T04:36:39.670Z,100497.91
2023-03-22T04:39:22.733Z,100497.00
2023-03-22T04:41:58.978Z,100497.59
2023-03-22T04:44:26.948Z,100498.94
2023-03-22T04:46:53.883Z,100494.06
2023-03-22T04:49:20.758Z,100493.81
2023-03-22T04:51:47.896Z,100498.03
2023-03-22T04:54:22.362Z,100504.47
2023-03-22T04:56:49.507Z,100502.09
2023-03-22T04:59:20.367Z,100501.69
2023-03-22T05:01:51.601Z,100500.31
2023-03-22T05:04:22.851Z,100498.13
2023-03-22T05:06:56.499Z,100511.06
2023-03-22T05:09:30.863Z,100502.41
2023-03-22T05:11:58.346Z,100504.09
2023-03-22T05:14:35.924Z,100508.09
2023-03-22T05:17:03.941Z,100498.03
2023-03-22T05:19:34.737Z,100500.66
2023-03-22T05:22:02.226Z,100496.91
2023-03-22T05:24:48.277Z,100502.38
2023-03-22T05:27:31.662Z,100507.75
2023-03-22T05:30:21.619Z,100509.84
2023-03-22T05:33:04.618Z,100519.09
2023-03-22T05:35:39.740Z,100514.50
2023-03-22T05:38:09.259Z,100510.97
2023-03-22T05:40:39.511Z,100511.91
2023-03-22T05:43:06.514Z,100512.00
2023-03-22T05:45:36.898Z,100514.03
2023-03-22T05:48:33.248Z,100526.44
2023-03-22T05:51:00.854Z,100521.88
2023-03-22T05:53:31.383Z,100519.09
2023-03-22T05:56:05.618Z,100515.94
2023-03-22T05:58:33.989Z,100511.91
2023-03-22T06:01:12.042Z,100515.53
2023-03-22T06:03:49.112Z,100505.25
2023-03-22T06:06:24.771Z,100507.59
2023-03-22T06:09:16.053Z,100510.69
2023-03-22T06:11:45.763Z,100509.91
2023-03-22T06:14:16.083Z,100516.09
2023-03-22T06:17:18.834Z,100511.03
2023-03-22T06:19:47.829Z,100509.94
2023-03-22T06:22:16.080Z,100512.06
2023-03-22T06:24:44.157Z,100514.72
2023-03-22T06:27:17.921Z,100514.34
2023-03-22T06:29:50.824Z,100526.50
2023-03-22T06:32:24.745Z,100524.31
2023-03-22T06:34:51.723Z,100527.97
2023-03-22T06:37:20.469Z,100523.47
2023-03-22T06:39:48.037Z,100532.13
2023-03-22T06:42:15.747Z,100539.16
2023-03-22T06:44:46.204Z,100541.38
2023-03-22T06:47:27.257Z,100545.78
2023-03-22T06:50:15.948Z,100548.44
2023-03-22T06:53:00.833Z,100549.66
2023-03-22T06:55:27.998Z,100549.84
2023-03-22T06:57:55.226Z,100556.38
2023-03-22T07:00:22.589Z,100560.56
2023-03-22T07:02:51.522Z,100561.44
2023-03-22T07:05:28.279Z,100561.03
2023-03-22T07:07:55.261Z,100572.94
2023-03-22T07:10:22.661Z,100561.78
2023-03-22T07:12:50.437Z,100567.84
2023-03-22T07:15:17.750Z,100567.84
2023-03-22T07:18:04.649Z,100577.94
2023-03-22T07:20:41.839Z,100584.34
2023-03-22T07:23:10.895Z,100584.25
2023-03-22T07:40:02.340Z,100584.25
2023-03-22T07:42:31.833Z,100582.50
2023-03-22T07:45:19.656Z,100582.41
2023-03-22T07:47:47.090Z,100589.94
2023-03-22T07:50:32.717Z,100590.69
2023-03-22T07:53:03.929Z,100597.38
2023-03-22T07:55:31.718Z,100589.63
2023-03-22T07:57:58.964Z,100596.44
2023-03-22T08:00:25.944Z,100591.31
2023-03-22T08:03:07.060Z,100593.25
2023-03-22T08:05:52.259Z,100597.91
2023-03-22T08:08:20.672Z,100606.03
2023-03-22T08:10:51.700Z,100603.66
2023-03-22T08:13:18.982Z,100603.06
2023-03-22T08:15:46.051Z,100602.34
2023-03-22T08:18:13.239Z,100605.81
2023-03-22T08:20:41.441Z,100600.31
2023-03-22T08:23:16.335Z,100604.53
2023-03-22T08:25:43.649Z,100610.41
2023-03-22T08:28:13.384Z,100609.31
2023-03-22T08:30:41.036Z,100612.16
2023-03-22T08:33:08.678Z,100615.69
2023-03-22T08:35:36.737Z,100614.13
2023-03-22T08:38:03.698Z,100619.13
2023-03-22T08:40:39.708Z,100625.09
2023-03-22T08:43:07.281Z,100621.25
2023-03-22T08:45:36.330Z,100626.66
2023-03-22T08:48:11.768Z,100639.44
2023-03-22T08:50:58.563Z,100633.75
2023-03-22T08:53:35.658Z,100644.78
2023-03-22T08:56:22.789Z,100651.41
2023-03-22T08:59:05.319Z,100650.03
2023-03-22T09:01:40.620Z,100652.16
2023-03-22T09:04:10.731Z,100645.88
2023-03-22T09:06:38.106Z,100659.78
2023-03-22T09:09:04.985Z,100649.41
2023-03-22T09:11:32.896Z,100662.50
2023-03-22T09:13:59.834Z,100658.19
2023-03-22T09:16:26.781Z,100673.25
2023-03-22T09:18:54.187Z,100666.53
2023-03-22T09:21:22.294Z,100673.03
2023-03-22T09:23:57.456Z,100673.03
2023-03-22T09:26:37.081Z,100675.31
2023-03-22T09:29:05.936Z,100681.94
2023-03-22T09:31:33.805Z,100684.66
2023-03-22T09:34:11.591Z,100681.75
2023-03-22T09:36:39.383Z,100693.13
2023-03-22T09:39:07.601Z,100691.00
2023-03-22T09:41:41.860Z,100689.47
2023-03-22T09:44:14.517Z,100701.09
2023-03-22T09:46:52.380Z,100701.09
2023-03-22T09:49:23.944Z,100708.44
2023-03-22T09:51:52.870Z,100706.66
2023-03-22T09:54:27.602Z,100706.81
2023-03-22T09:57:06.542Z,100709.22
2023-03-22T10:00:02.322Z,100711.66
2023-03-22T10:02:57.002Z,100717.44
2023-03-22T10:05:39.379Z,100710.44
2023-03-22T10:08:09.066Z,100709.28
2023-03-22T10:10:37.629Z,100708.81
2023-03-22T10:13:16.543Z,100713.06
2023-03-22T10:15:53.254Z,100705.53
2023-03-22T10:18:33.254Z,100703.22
2023-03-22T10:21:06.963Z,100703.25
2023-03-22T10:23:44.066Z,100715.44
2023-03-22T10:26:21.142Z,100704.81
2023-03-22T10:29:02.725Z,100709.13
2023-03-22T10:31:31.764Z,100714.00
2023-03-22T10:34:05.616Z,100710.28
2023-03-22T10:36:35.892Z,100717.03
2023-03-22T10:39:17.075Z,100705.78
2023-03-22T10:41:45.047Z,100697.81
2023-03-22T10:44:18.147Z,100708.13
2023-03-22T10:46:46.440Z,100707.34
2023-03-22T10:49:22.170Z,100703.53
2023-03-22T10:51:51.819Z,100707.50
2023-03-22T10:54:21.659Z,100700.81
2023-03-22T10:56:48.551Z,100714.91
2023-03-22T10:59:44.096Z,100706.22
2023-03-22T11:02:34.364Z,100695.34
2023-03-22T11:05:04.598Z,100699.75
2023-03-22T11:07:45.018Z,100696.50
2023-03-22T11:10:21.852Z,100691.69
2023-03-22T11:12:55.319Z,100693.84
2023-03-22T11:15:32.609Z,100698.31
2023-03-22T11:18:07.628Z,100678.59
2023-03-22T11:20:35.390Z,100688.78
2023-03-22T11:23:06.238Z,100682.34
2023-03-22T11:25:37.882Z,100684.22
2023-03-22T11:28:04.702Z,100683.50
2023-03-22T11:30:34.048Z,100682.69
2023-03-22T11:33:07.203Z,100664.16
2023-03-22T11:35:37.853Z,100674.47
2023-03-22T11:38:05.782Z,100679.19
2023-03-22T11:40:35.706Z,100674.09
2023-03-22T11:43:19.510Z,100675.50
2023-03-22T11:45:49.995Z,100663.31
2023-03-22T11:48:24.620Z,100671.88
2023-03-22T11:50:55.409Z,100670.41
2023-03-22T11:53:25.438Z,100659.06
2023-03-22T11:55:55.841Z,100660.44
2023-03-22T11:58:30.193Z,100659.81
2023-03-22T12:01:02.276Z,100653.28
2023-03-22T12:03:39.488Z,100652.50
2023-03-22T12:06:24.603Z,100654.81
2023-03-22T12:08:57.784Z,100651.44
2023-03-22T12:11:30.682Z,100646.97
2023-03-22T12:14:07.300Z,100643.47
2023-03-22T12:17:05.617Z,100649.50
2023-03-22T12:19:57.872Z,100642.44
2023-03-22T12:22:32.528Z,100646.91
2023-03-22T12:25:00.137Z,100642.88
2023-03-22T12:27:41.802Z,100644.81
2023-03-22T12:30:17.946Z,100637.84
2023-03-22T12:32:53.720Z,100640.03
2023-03-22T12:35:25.870Z,100632.34
2023-03-22T12:37:56.977Z,100630.72
2023-03-22T12:40:29.247Z,100640.56
2023-03-22T12:43:22.275Z,100641.53
2023-03-22T12:45:55.206Z,100637.59
2023-03-22T12:48:46.646Z,100639.47
2023-03-22T12:51:15.023Z,100637.84
2023-03-22T12:54:02.565Z,100640.56
2023-03-22T12:56:32.502Z,100636.41
2023-03-22T12:59:04.659Z,100632.88
2023-03-22T13:01:45.720Z,100624.09
2023-03-22T13:04:37.892Z,100635.69
2023-03-22T13:07:13.878Z,100635.91
2023-03-22T13:09:51.188Z,100630.13
2023-03-22T13:12:18.137Z,100634.47
2023-03-22T13:14:56.242Z,100626.53
2023-03-22T13:17:23.242Z,100627.25
2023-03-22T13:20:02.005Z,100622.44
2023-03-22T13:22:38.125Z,100616.75
2023-03-22T13:25:17.699Z,100623.59
2023-03-22T13:27:59.209Z,100609.81
2023-03-22T13:30:50.905Z,100616.88
2023-03-22T13:33:20.234Z,100614.94
2023-03-22T13:35:52.534Z,100604.66
2023-03-22T13:38:19.661Z,100616.75
2023-03-22T13:41:06.749Z,100609.00
2023-03-22T13:43:39.833Z,100607.69
2023-03-22T13:46:10.311Z,100612.47
2023-03-22T13:48:54.471Z,100608.81
2023-03-22T13:51:31.231Z,100609.13
2023-03-22T13:54:07.299Z,100609.63
2023-03-22T13:56:54.369Z,100607.06
2023-03-22T13:59:27.633Z,100611.16
2023-03-22T14:02:00.283Z,100609.22
2023-03-22T14:04:42.622Z,100609.53
2023-03-22T14:07:13.549Z,100614.41
2023-03-22T14:09:49.786Z,100615.31
2023-03-22T14:12:21.405Z,100613.47
2023-03-22T14:14:57.239Z,100612.09
2023-03-22T14:17:44.528Z,100615.31
2023-03-22T14:20:19.359Z,100622.41
